sensor_id;sensor_type;location;lat;lon;timestamp;temperature;humidity
9837;DHT22;4957;51.412;6.724;2023-06-04T00:00:43;18.50;35.50
9837;DHT22;4957;51.412;6.724;2023-06-04T00:03:09;18.40;35.40
9837;DHT22;4957;51.412;6.724;2023-06-04T00:05:35;18.40;35.40
9837;DHT22;4957;51.412;6.724;2023-06-04T00:08:00;18.30;35.50
9837;DHT22;4957;51.412;6.724;2023-06-04T00:10:26;18.30;35.50
9837;DHT22;4957;51.412;6.724;2023-06-04T00:12:51;18.30;35.60
9837;DHT22;4957;51.412;6.724;2023-06-04T00:15:17;18.20;35.60
9837;DHT22;4957;51.412;6.724;2023-06-04T00:17:43;18.10;35.80
9837;DHT22;4957;51.412;6.724;2023-06-04T00:20:09;18.10;35.90
9837;DHT22;4957;51.412;6.724;2023-06-04T00:22:35;18.10;36.00
9837;DHT22;4957;51.412;6.724;2023-06-04T00:25:01;18.00;36.10
9837;DHT22;4957;51.412;6.724;2023-06-04T00:27:27;18.00;36.10
9837;DHT22;4957;51.412;6.724;2023-06-04T00:29:53;18.00;36.10
9837;DHT22;4957;51.412;6.724;2023-06-04T00:32:18;18.00;36.30
9837;DHT22;4957;51.412;6.724;2023-06-04T00:34:51;17.90;36.30
9837;DHT22;4957;51.412;6.724;2023-06-04T00:37:17;17.90;36.60
9837;DHT22;4957;51.412;6.724;2023-06-04T00:39:42;17.80;36.60
9837;DHT22;4957;51.412;6.724;2023-06-04T00:42:08;17.80;36.70
9837;DHT22;4957;51.412;6.724;2023-06-04T00:44:34;17.80;36.90
9837;DHT22;4957;51.412;6.724;2023-06-04T00:47:01;17.80;37.00
9837;DHT22;4957;51.412;6.724;2023-06-04T00:49:28;17.70;36.90
9837;DHT22;4957;51.412;6.724;2023-06-04T00:51:53;17.70;36.90
9837;DHT22;4957;51.412;6.724;2023-06-04T00:54:20;17.70;36.90
9837;DHT22;4957;51.412;6.724;2023-06-04T00:56:46;17.70;37.10
9837;DHT22;4957;51.412;6.724;2023-06-04T00:59:12;17.60;37.30
9837;DHT22;4957;51.412;6.724;2023-06-04T01:04:29;17.60;38.10
9837;DHT22;4957;51.412;6.724;2023-06-04T01:06:57;17.50;38.10
9837;DHT22;4957;51.412;6.724;2023-06-04T01:09:26;17.50;38.10
9837;DHT22;4957;51.412;6.724;2023-06-04T01:11:53;17.40;38.30
9837;DHT22;4957;51.412;6.724;2023-06-04T01:14:19;17.40;38.70
9837;DHT22;4957;51.412;6.724;2023-06-04T01:16:52;17.30;38.90
9837;DHT22;4957;51.412;6.724;2023-06-04T01:28:05;17.20;40.00
9837;DHT22;4957;51.412;6.724;2023-06-04T01:30:35;17.10;39.80
9837;DHT22;4957;51.412;6.724;2023-06-04T01:33:09;17.00;40.40
9837;DHT22;4957;51.412;6.724;2023-06-04T01:35:36;17.00;40.40
9837;DHT22;4957;51.412;6.724;2023-06-04T01:38:02;17.00;40.60
9837;DHT22;4957;51.412;6.724;2023-06-04T01:40:28;17.00;40.60
9837;DHT22;4957;51.412;6.724;2023-06-04T01:42:54;17.00;40.90
9837;DHT22;4957;51.412;6.724;2023-06-04T01:45:21;16.90;41.20
9837;DHT22;4957;51.412;6.724;2023-06-04T01:47:47;16.80;41.20
9837;DHT22;4957;51.412;6.724;2023-06-04T01:50:13;16.80;41.50
9837;DHT22;4957;51.412;6.724;2023-06-04T01:52:39;16.70;41.90
9837;DHT22;4957;51.412;6.724;2023-06-04T01:55:09;16.70;42.20
9837;DHT22;4957;51.412;6.724;2023-06-04T01:57:37;16.60;42.60
9837;DHT22;4957;51.412;6.724;2023-06-04T02:00:08;16.50;43.00
9837;DHT22;4957;51.412;6.724;2023-06-04T02:02:35;16.40;43.20
9837;DHT22;4957;51.412;6.724;2023-06-04T02:05:04;16.40;43.40
9837;DHT22;4957;51.412;6.724;2023-06-04T02:07:39;16.40;43.60
9837;DHT22;4957;51.412;6.724;2023-06-04T02:10:08;16.30;43.90
9837;DHT22;4957;51.412;6.724;2023-06-04T02:12:57;16.20;44.70
9837;DHT22;4957;51.412;6.724;2023-06-04T02:15:25;16.30;44.70
9837;DHT22;4957;51.412;6.724;2023-06-04T02:17:57;16.20;44.40
9837;DHT22;4957;51.412;6.724;2023-06-04T02:20:25;16.20;44.30
9837;DHT22;4957;51.412;6.724;2023-06-04T02:22:51;16.20;44.10
9837;DHT22;4957;51.412;6.724;2023-06-04T02:25:17;16.10;44.40
9837;DHT22;4957;51.412;6.724;2023-06-04T02:27:42;16.10;45.00
9837;DHT22;4957;51.412;6.724;2023-06-04T02:30:08;16.10;45.20
9837;DHT22;4957;51.412;6.724;2023-06-04T02:32:34;16.10;45.10
9837;DHT22;4957;51.412;6.724;2023-06-04T02:35:01;16.10;45.30
9837;DHT22;4957;51.412;6.724;2023-06-04T02:37:27;16.00;45.40
9837;DHT22;4957;51.412;6.724;2023-06-04T02:39:53;16.00;45.60
9837;DHT22;4957;51.412;6.724;2023-06-04T02:42:18;16.00;45.60
9837;DHT22;4957;51.412;6.724;2023-06-04T02:44:44;16.00;45.60
9837;DHT22;4957;51.412;6.724;2023-06-04T02:47:10;16.00;45.70
9837;DHT22;4957;51.412;6.724;2023-06-04T02:49:35;15.90;46.20
9837;DHT22;4957;51.412;6.724;2023-06-04T02:52:01;15.90;46.20
9837;DHT22;4957;51.412;6.724;2023-06-04T02:54:27;15.90;46.10
9837;DHT22;4957;51.412;6.724;2023-06-04T02:56:52;15.80;46.30
9837;DHT22;4957;51.412;6.724;2023-06-04T02:59:18;15.80;46.60
9837;DHT22;4957;51.412;6.724;2023-06-04T03:01:44;15.80;47.40
9837;DHT22;4957;51.412;6.724;2023-06-04T03:04:10;15.80;47.30
9837;DHT22;4957;51.412;6.724;2023-06-04T03:06:41;15.70;47.20
9837;DHT22;4957;51.412;6.724;2023-06-04T03:09:11;15.70;47.20
9837;DHT22;4957;51.412;6.724;2023-06-04T03:11:38;15.70;47.50
9837;DHT22;4957;51.412;6.724;2023-06-04T03:14:03;15.70;47.30
9837;DHT22;4957;51.412;6.724;2023-06-04T03:16:29;15.70;47.30
9837;DHT22;4957;51.412;6.724;2023-06-04T03:18:54;15.70;47.30
9837;DHT22;4957;51.412;6.724;2023-06-04T03:21:22;15.70;47.00
9837;DHT22;4957;51.412;6.724;2023-06-04T03:23:47;15.60;47.80
9837;DHT22;4957;51.412;6.724;2023-06-04T03:26:13;15.60;48.00
9837;DHT22;4957;51.412;6.724;2023-06-04T03:28:39;15.50;48.30
9837;DHT22;4957;51.412;6.724;2023-06-04T03:31:06;15.50;48.30
9837;DHT22;4957;51.412;6.724;2023-06-04T03:33:31;15.50;48.50
9837;DHT22;4957;51.412;6.724;2023-06-04T03:35:57;15.40;48.50
9837;DHT22;4957;51.412;6.724;2023-06-04T03:38:24;15.40;48.80
9837;DHT22;4957;51.412;6.724;2023-06-04T03:40:50;15.30;49.00
9837;DHT22;4957;51.412;6.724;2023-06-04T03:43:21;15.30;49.30
9837;DHT22;4957;51.412;6.724;2023-06-04T03:45:46;15.30;49.90
9837;DHT22;4957;51.412;6.724;2023-06-04T03:48:12;15.30;49.90
9837;DHT22;4957;51.412;6.724;2023-06-04T03:50:38;15.20;49.80
9837;DHT22;4957;51.412;6.724;2023-06-04T03:53:03;15.20;50.30
9837;DHT22;4957;51.412;6.724;2023-06-04T03:55:30;15.20;51.20
9837;DHT22;4957;51.412;6.724;2023-06-04T03:57:58;15.10;51.60
9837;DHT22;4957;51.412;6.724;2023-06-04T04:00:24;15.10;51.80
9837;DHT22;4957;51.412;6.724;2023-06-04T04:02:50;15.10;52.30
9837;DHT22;4957;51.412;6.724;2023-06-04T04:05:16;15.00;52.40
9837;DHT22;4957;51.412;6.724;2023-06-04T04:07:41;15.00;53.10
9837;DHT22;4957;51.412;6.724;2023-06-04T04:10:07;15.00;53.10
9837;DHT22;4957;51.412;6.724;2023-06-04T04:12:33;15.00;53.20
9837;DHT22;4957;51.412;6.724;2023-06-04T04:14:59;15.00;54.00
9837;DHT22;4957;51.412;6.724;2023-06-04T04:17:25;14.90;53.50
9837;DHT22;4957;51.412;6.724;2023-06-04T04:19:51;14.90;54.40
9837;DHT22;4957;51.412;6.724;2023-06-04T04:22:17;14.90;55.80
9837;DHT22;4957;51.412;6.724;2023-06-04T04:24:43;14.90;55.50
9837;DHT22;4957;51.412;6.724;2023-06-04T04:27:09;14.80;55.90
9837;DHT22;4957;51.412;6.724;2023-06-04T04:29:39;14.80;56.20
9837;DHT22;4957;51.412;6.724;2023-06-04T04:32:08;14.80;56.30
9837;DHT22;4957;51.412;6.724;2023-06-04T04:34:37;14.80;57.00
9837;DHT22;4957;51.412;6.724;2023-06-04T04:37:04;14.80;57.20
9837;DHT22;4957;51.412;6.724;2023-06-04T04:39:34;14.80;57.30
9837;DHT22;4957;51.412;6.724;2023-06-04T04:42:01;14.80;57.00
9837;DHT22;4957;51.412;6.724;2023-06-04T04:44:27;14.80;57.80
9837;DHT22;4957;51.412;6.724;2023-06-04T04:46:53;14.80;58.20
9837;DHT22;4957;51.412;6.724;2023-06-04T04:49:19;14.80;59.30
9837;DHT22;4957;51.412;6.724;2023-06-04T04:51:44;14.80;59.20
9837;DHT22;4957;51.412;6.724;2023-06-04T04:54:10;14.80;59.10
9837;DHT22;4957;51.412;6.724;2023-06-04T04:56:36;14.90;59.60
9837;DHT22;4957;51.412;6.724;2023-06-04T04:59:02;14.90;60.20
9837;DHT22;4957;51.412;6.724;2023-06-04T05:01:27;15.00;60.20
9837;DHT22;4957;51.412;6.724;2023-06-04T05:03:53;15.10;61.10
9837;DHT22;4957;51.412;6.724;2023-06-04T05:06:19;15.20;61.20
9837;DHT22;4957;51.412;6.724;2023-06-04T05:08:45;15.20;62.20
9837;DHT22;4957;51.412;6.724;2023-06-04T05:11:11;15.30;62.50
9837;DHT22;4957;51.412;6.724;2023-06-04T05:13:36;15.40;62.90
9837;DHT22;4957;51.412;6.724;2023-06-04T05:16:02;15.50;62.50
9837;DHT22;4957;51.412;6.724;2023-06-04T05:18:39;15.60;62.10
9837;DHT22;4957;51.412;6.724;2023-06-04T05:21:10;15.60;61.60
9837;DHT22;4957;51.412;6.724;2023-06-04T05:23:38;15.70;62.70
9837;DHT22;4957;51.412;6.724;2023-06-04T05:26:04;15.90;62.00
9837;DHT22;4957;51.412;6.724;2023-06-04T05:28:31;15.90;62.00
9837;DHT22;4957;51.412;6.724;2023-06-04T05:30:59;16.10;62.20
9837;DHT22;4957;51.412;6.724;2023-06-04T05:33:28;16.20;61.60
9837;DHT22;4957;51.412;6.724;2023-06-04T05:35:55;16.30;61.70
9837;DHT22;4957;51.412;6.724;2023-06-04T05:38:23;16.40;60.50
9837;DHT22;4957;51.412;6.724;2023-06-04T05:40:54;16.50;61.00
9837;DHT22;4957;51.412;6.724;2023-06-04T05:43:21;16.60;60.50
9837;DHT22;4957;51.412;6.724;2023-06-04T05:45:47;16.80;60.10
9837;DHT22;4957;51.412;6.724;2023-06-04T05:48:12;16.90;59.70
9837;DHT22;4957;51.412;6.724;2023-06-04T05:50:38;17.00;59.80
9837;DHT22;4957;51.412;6.724;2023-06-04T05:53:09;17.20;59.60
9837;DHT22;4957;51.412;6.724;2023-06-04T05:55:35;17.40;58.90
9837;DHT22;4957;51.412;6.724;2023-06-04T05:58:01;17.50;57.90
9837;DHT22;4957;51.412;6.724;2023-06-04T06:00:27;17.60;57.40
9837;DHT22;4957;51.412;6.724;2023-06-04T06:02:53;17.80;57.70
9837;DHT22;4957;51.412;6.724;2023-06-04T06:05:19;18.00;56.90
9837;DHT22;4957;51.412;6.724;2023-06-04T06:07:45;18.10;56.40
9837;DHT22;4957;51.412;6.724;2023-06-04T06:10:11;18.20;55.80
9837;DHT22;4957;51.412;6.724;2023-06-04T06:12:37;18.30;55.50
9837;DHT22;4957;51.412;6.724;2023-06-04T06:15:03;18.60;55.40
9837;DHT22;4957;51.412;6.724;2023-06-04T06:17:29;18.80;54.40
9837;DHT22;4957;51.412;6.724;2023-06-04T06:19:55;18.90;53.80
9837;DHT22;4957;51.412;6.724;2023-06-04T06:22:24;19.00;53.50
9837;DHT22;4957;51.412;6.724;2023-06-04T06:24:50;19.10;53.20
9837;DHT22;4957;51.412;6.724;2023-06-04T06:27:16;19.20;52.70
9837;DHT22;4957;51.412;6.724;2023-06-04T06:29:43;19.40;52.00
9837;DHT22;4957;51.412;6.724;2023-06-04T06:32:10;19.60;51.20
9837;DHT22;4957;51.412;6.724;2023-06-04T06:34:36;19.80;50.10
9837;DHT22;4957;51.412;6.724;2023-06-04T06:37:02;20.20;49.00
9837;DHT22;4957;51.412;6.724;2023-06-04T06:39:28;20.40;48.30
9837;DHT22;4957;51.412;6.724;2023-06-04T06:41:54;20.70;47.30
9837;DHT22;4957;51.412;6.724;2023-06-04T06:44:19;20.90;46.40
9837;DHT22;4957;51.412;6.724;2023-06-04T06:46:46;21.00;46.30
9837;DHT22;4957;51.412;6.724;2023-06-04T06:49:12;21.10;46.40
9837;DHT22;4957;51.412;6.724;2023-06-04T06:51:38;21.30;46.00
9837;DHT22;4957;51.412;6.724;2023-06-04T06:54:03;21.40;46.00
9837;DHT22;4957;51.412;6.724;2023-06-04T06:56:29;21.50;45.90
9837;DHT22;4957;51.412;6.724;2023-06-04T06:58:55;21.50;45.50
9837;DHT22;4957;51.412;6.724;2023-06-04T07:01:21;21.80;45.30
9837;DHT22;4957;51.412;6.724;2023-06-04T07:03:47;22.00;44.70
9837;DHT22;4957;51.412;6.724;2023-06-04T07:06:13;22.30;44.50
9837;DHT22;4957;51.412;6.724;2023-06-04T07:08:39;22.40;44.10
9837;DHT22;4957;51.412;6.724;2023-06-04T07:11:05;22.70;43.20
9837;DHT22;4957;51.412;6.724;2023-06-04T07:13:30;23.00;42.40
9837;DHT22;4957;51.412;6.724;2023-06-04T07:15:59;23.30;41.80
9837;DHT22;4957;51.412;6.724;2023-06-04T07:18:25;23.50;41.60
9837;DHT22;4957;51.412;6.724;2023-06-04T07:20:51;23.50;41.60
9837;DHT22;4957;51.412;6.724;2023-06-04T07:23:18;23.60;41.30
9837;DHT22;4957;51.412;6.724;2023-06-04T07:25:43;23.80;41.00
9837;DHT22;4957;51.412;6.724;2023-06-04T07:28:09;23.90;40.80
9837;DHT22;4957;51.412;6.724;2023-06-04T07:30:35;24.00;40.50
9837;DHT22;4957;51.412;6.724;2023-06-04T07:33:02;24.20;40.00
9837;DHT22;4957;51.412;6.724;2023-06-04T07:35:28;24.50;39.70
9837;DHT22;4957;51.412;6.724;2023-06-04T07:37:53;24.60;39.90
9837;DHT22;4957;51.412;6.724;2023-06-04T07:40:19;24.80;39.70
9837;DHT22;4957;51.412;6.724;2023-06-04T07:42:46;24.90;39.20
9837;DHT22;4957;51.412;6.724;2023-06-04T07:45:12;25.00;38.70
9837;DHT22;4957;51.412;6.724;2023-06-04T07:47:38;25.30;38.00
9837;DHT22;4957;51.412;6.724;2023-06-04T07:50:05;25.50;37.90
9837;DHT22;4957;51.412;6.724;2023-06-04T07:52:32;25.70;37.40
9837;DHT22;4957;51.412;6.724;2023-06-04T07:54:59;25.90;37.00
9837;DHT22;4957;51.412;6.724;2023-06-04T07:57:24;26.10;36.30
9837;DHT22;4957;51.412;6.724;2023-06-04T07:59:50;26.40;35.80
9837;DHT22;4957;51.412;6.724;2023-06-04T08:02:17;26.50;35.60
9837;DHT22;4957;51.412;6.724;2023-06-04T08:04:42;26.70;35.40
9837;DHT22;4957;51.412;6.724;2023-06-04T08:07:08;27.00;33.90
9837;DHT22;4957;51.412;6.724;2023-06-04T08:09:34;27.30;33.90
9837;DHT22;4957;51.412;6.724;2023-06-04T08:12:00;27.40;33.80
9837;DHT22;4957;51.412;6.724;2023-06-04T08:14:25;27.50;34.30
9837;DHT22;4957;51.412;6.724;2023-06-04T08:16:55;27.60;33.90
9837;DHT22;4957;51.412;6.724;2023-06-04T08:19:21;27.70;33.90
9837;DHT22;4957;51.412;6.724;2023-06-04T08:21:47;27.80;33.40
9837;DHT22;4957;51.412;6.724;2023-06-04T08:24:13;28.00;33.30
9837;DHT22;4957;51.412;6.724;2023-06-04T08:26:38;28.20;33.10
9837;DHT22;4957;51.412;6.724;2023-06-04T08:29:05;28.30;33.00
9837;DHT22;4957;51.412;6.724;2023-06-04T08:31:31;28.40;32.90
9837;DHT22;4957;51.412;6.724;2023-06-04T08:33:57;28.60;32.70
9837;DHT22;4957;51.412;6.724;2023-06-04T08:36:23;28.70;31.70
9837;DHT22;4957;51.412;6.724;2023-06-04T08:38:49;29.00;31.20
9837;DHT22;4957;51.412;6.724;2023-06-04T08:44:05;29.40;30.30
9837;DHT22;4957;51.412;6.724;2023-06-04T08:46:38;29.50;30.10
9837;DHT22;4957;51.412;6.724;2023-06-04T08:49:07;29.90;29.00
9837;DHT22;4957;51.412;6.724;2023-06-04T08:51:36;30.40;28.30
9837;DHT22;4957;51.412;6.724;2023-06-04T08:54:06;30.80;28.30
9837;DHT22;4957;51.412;6.724;2023-06-04T08:56:34;31.00;27.70
9837;DHT22;4957;51.412;6.724;2023-06-04T08:59:05;31.40;26.60
9837;DHT22;4957;51.412;6.724;2023-06-04T09:01:35;31.90;26.70
9837;DHT22;4957;51.412;6.724;2023-06-04T09:04:05;31.90;27.10
9837;DHT22;4957;51.412;6.724;2023-06-04T09:06:32;31.90;26.80
9837;DHT22;4957;51.412;6.724;2023-06-04T09:09:01;31.90;26.70
9837;DHT22;4957;51.412;6.724;2023-06-04T09:11:53;32.10;26.30
9837;DHT22;4957;51.412;6.724;2023-06-04T09:14:19;32.30;25.50
9837;DHT22;4957;51.412;6.724;2023-06-04T09:16:53;32.60;25.40
9837;DHT22;4957;51.412;6.724;2023-06-04T09:19:20;32.70;25.10
9837;DHT22;4957;51.412;6.724;2023-06-04T09:21:57;32.80;25.40
9837;DHT22;4957;51.412;6.724;2023-06-04T09:24:24;32.90;25.30
9837;DHT22;4957;51.412;6.724;2023-06-04T09:26:51;32.90;25.40
9837;DHT22;4957;51.412;6.724;2023-06-04T09:29:18;33.00;24.90
9837;DHT22;4957;51.412;6.724;2023-06-04T09:31:59;33.20;24.50
9837;DHT22;4957;51.412;6.724;2023-06-04T09:34:28;33.30;25.00
9837;DHT22;4957;51.412;6.724;2023-06-04T09:36:54;33.30;24.60
9837;DHT22;4957;51.412;6.724;2023-06-04T09:39:20;33.50;24.70
9837;DHT22;4957;51.412;6.724;2023-06-04T09:41:57;33.90;23.60
9837;DHT22;4957;51.412;6.724;2023-06-04T09:44:23;34.50;22.60
9837;DHT22;4957;51.412;6.724;2023-06-04T09:46:56;34.90;22.30
9837;DHT22;4957;51.412;6.724;2023-06-04T09:49:22;35.20;21.90
9837;DHT22;4957;51.412;6.724;2023-06-04T09:51:48;35.20;22.10
9837;DHT22;4957;51.412;6.724;2023-06-04T09:54:14;35.10;22.20
9837;DHT22;4957;51.412;6.724;2023-06-04T09:56:41;35.10;21.90
9837;DHT22;4957;51.412;6.724;2023-06-04T09:59:08;35.10;22.50
9837;DHT22;4957;51.412;6.724;2023-06-04T10:01:39;35.40;21.80
9837;DHT22;4957;51.412;6.724;2023-06-04T10:04:08;35.50;21.50
9837;DHT22;4957;51.412;6.724;2023-06-04T10:06:35;35.50;22.10
9837;DHT22;4957;51.412;6.724;2023-06-04T10:09:05;35.40;22.30
9837;DHT22;4957;51.412;6.724;2023-06-04T10:11:44;35.30;22.20
9837;DHT22;4957;51.412;6.724;2023-06-04T10:14:19;35.30;22.20
9837;DHT22;4957;51.412;6.724;2023-06-04T10:16:46;35.30;22.00
9837;DHT22;4957;51.412;6.724;2023-06-04T10:19:13;35.30;22.30
9837;DHT22;4957;51.412;6.724;2023-06-04T10:21:39;35.60;22.30
9837;DHT22;4957;51.412;6.724;2023-06-04T10:24:05;35.60;22.40
9837;DHT22;4957;51.412;6.724;2023-06-04T10:26:36;35.70;22.60
9837;DHT22;4957;51.412;6.724;2023-06-04T10:29:02;36.00;21.50
9837;DHT22;4957;51.412;6.724;2023-06-04T10:31:29;36.30;22.20
9837;DHT22;4957;51.412;6.724;2023-06-04T10:33:56;36.30;21.90
9837;DHT22;4957;51.412;6.724;2023-06-04T10:36:23;36.30;22.00
9837;DHT22;4957;51.412;6.724;2023-06-04T10:38:51;36.30;21.70
9837;DHT22;4957;51.412;6.724;2023-06-04T10:41:18;37.00;20.50
9837;DHT22;4957;51.412;6.724;2023-06-04T10:43:48;37.20;20.60
9837;DHT22;4957;51.412;6.724;2023-06-04T10:46:18;37.20;20.60
9837;DHT22;4957;51.412;6.724;2023-06-04T10:48:51;37.10;21.50
9837;DHT22;4957;51.412;6.724;2023-06-04T10:51:29;37.20;20.80
9837;DHT22;4957;51.412;6.724;2023-06-04T10:53:57;37.40;20.40
9837;DHT22;4957;51.412;6.724;2023-06-04T10:56:33;37.40;20.70
9837;DHT22;4957;51.412;6.724;2023-06-04T10:59:14;37.70;20.00
9837;DHT22;4957;51.412;6.724;2023-06-04T11:01:40;37.90;19.90
9837;DHT22;4957;51.412;6.724;2023-06-04T11:04:05;38.00;20.40
9837;DHT22;4957;51.412;6.724;2023-06-04T11:06:31;37.90;20.20
9837;DHT22;4957;51.412;6.724;2023-06-04T11:09:04;37.90;20.50
9837;DHT22;4957;51.412;6.724;2023-06-04T11:11:34;37.90;19.50
9837;DHT22;4957;51.412;6.724;2023-06-04T11:14:10;38.30;19.70
9837;DHT22;4957;51.412;6.724;2023-06-04T11:16:38;38.40;19.40
9837;DHT22;4957;51.412;6.724;2023-06-04T11:19:04;38.40;19.90
9837;DHT22;4957;51.412;6.724;2023-06-04T11:21:30;38.30;19.70
9837;DHT22;4957;51.412;6.724;2023-06-04T11:23:58;38.30;19.70
9837;DHT22;4957;51.412;6.724;2023-06-04T11:26:33;38.40;20.10
9837;DHT22;4957;51.412;6.724;2023-06-04T11:29:00;38.40;19.60
9837;DHT22;4957;51.412;6.724;2023-06-04T11:31:26;38.50;19.60
9837;DHT22;4957;51.412;6.724;2023-06-04T11:33:53;38.60;19.10
9837;DHT22;4957;51.412;6.724;2023-06-04T11:36:26;39.00;18.40
9837;DHT22;4957;51.412;6.724;2023-06-04T11:38:59;39.30;18.50
9837;DHT22;4957;51.412;6.724;2023-06-04T11:41:33;39.30;18.60
9837;DHT22;4957;51.412;6.724;2023-06-04T11:44:02;39.20;18.60
9837;DHT22;4957;51.412;6.724;2023-06-04T11:46:35;39.10;19.00
9837;DHT22;4957;51.412;6.724;2023-06-04T11:49:02;39.20;18.10
9837;DHT22;4957;51.412;6.724;2023-06-04T11:51:28;39.40;18.60
9837;DHT22;4957;51.412;6.724;2023-06-04T11:53:54;39.30;19.00
9837;DHT22;4957;51.412;6.724;2023-06-04T11:56:21;39.20;19.30
9837;DHT22;4957;51.412;6.724;2023-06-04T11:58:49;39.20;19.40
9837;DHT22;4957;51.412;6.724;2023-06-04T12:01:16;39.10;19.30
9837;DHT22;4957;51.412;6.724;2023-06-04T12:03:42;39.10;19.70
9837;DHT22;4957;51.412;6.724;2023-06-04T12:08:49;39.10;19.10
9837;DHT22;4957;51.412;6.724;2023-06-04T12:11:32;39.50;18.50
9837;DHT22;4957;51.412;6.724;2023-06-04T12:14:02;39.70;18.80
9837;DHT22;4957;51.412;6.724;2023-06-04T12:16:28;39.60;19.00
9837;DHT22;4957;51.412;6.724;2023-06-04T12:19:12;39.60;18.70
9837;DHT22;4957;51.412;6.724;2023-06-04T12:21:38;39.70;18.50
9837;DHT22;4957;51.412;6.724;2023-06-04T12:24:11;39.70;19.10
9837;DHT22;4957;51.412;6.724;2023-06-04T12:26:39;39.70;18.60
9837;DHT22;4957;51.412;6.724;2023-06-04T12:29:17;39.80;18.80
9837;DHT22;4957;51.412;6.724;2023-06-04T12:31:44;39.80;18.80
9837;DHT22;4957;51.412;6.724;2023-06-04T12:34:13;39.80;18.80
9837;DHT22;4957;51.412;6.724;2023-06-04T12:36:40;39.80;18.60
9837;DHT22;4957;51.412;6.724;2023-06-04T12:39:06;39.80;18.60
9837;DHT22;4957;51.412;6.724;2023-06-04T12:41:33;39.80;19.20
9837;DHT22;4957;51.412;6.724;2023-06-04T12:43:59;39.90;18.50
9837;DHT22;4957;51.412;6.724;2023-06-04T12:46:26;39.90;18.90
9837;DHT22;4957;51.412;6.724;2023-06-04T12:48:53;39.90;18.30
9837;DHT22;4957;51.412;6.724;2023-06-04T12:51:20;40.10;18.70
9837;DHT22;4957;51.412;6.724;2023-06-04T12:53:47;40.00;18.80
9837;DHT22;4957;51.412;6.724;2023-06-04T12:56:13;40.00;18.70
9837;DHT22;4957;51.412;6.724;2023-06-04T12:58:39;39.90;18.40
9837;DHT22;4957;51.412;6.724;2023-06-04T13:01:05;39.90;18.60
9837;DHT22;4957;51.412;6.724;2023-06-04T13:03:31;40.00;17.80
9837;DHT22;4957;51.412;6.724;2023-06-04T13:05:57;40.10;17.80
9837;DHT22;4957;51.412;6.724;2023-06-04T13:08:24;40.10;17.60
9837;DHT22;4957;51.412;6.724;2023-06-04T13:10:50;40.10;17.80
9837;DHT22;4957;51.412;6.724;2023-06-04T13:13:17;40.10;18.10
9837;DHT22;4957;51.412;6.724;2023-06-04T13:15:43;40.00;18.20
9837;DHT22;4957;51.412;6.724;2023-06-04T13:18:10;40.00;18.20
9837;DHT22;4957;51.412;6.724;2023-06-04T13:20:37;39.90;18.30
9837;DHT22;4957;51.412;6.724;2023-06-04T13:23:03;39.80;17.90
9837;DHT22;4957;51.412;6.724;2023-06-04T13:25:28;39.70;17.70
9837;DHT22;4957;51.412;6.724;2023-06-04T13:27:56;39.60;18.10
9837;DHT22;4957;51.412;6.724;2023-06-04T13:30:21;39.40;17.80
9837;DHT22;4957;51.412;6.724;2023-06-04T13:32:48;39.40;17.90
9837;DHT22;4957;51.412;6.724;2023-06-04T13:35:13;39.30;18.00
9837;DHT22;4957;51.412;6.724;2023-06-04T13:37:39;39.20;18.40
9837;DHT22;4957;51.412;6.724;2023-06-04T13:40:06;39.10;18.20
9837;DHT22;4957;51.412;6.724;2023-06-04T13:42:32;39.00;18.40
9837;DHT22;4957;51.412;6.724;2023-06-04T13:44:57;38.90;18.80
9837;DHT22;4957;51.412;6.724;2023-06-04T13:47:24;38.80;18.70
9837;DHT22;4957;51.412;6.724;2023-06-04T13:49:51;38.60;17.90
9837;DHT22;4957;51.412;6.724;2023-06-04T13:52:16;38.40;17.80
9837;DHT22;4957;51.412;6.724;2023-06-04T13:54:42;38.10;17.80
9837;DHT22;4957;51.412;6.724;2023-06-04T13:57:08;38.00;18.20
9837;DHT22;4957;51.412;6.724;2023-06-04T13:59:37;37.80;18.50
9837;DHT22;4957;51.412;6.724;2023-06-04T14:02:03;37.70;18.60
9837;DHT22;4957;51.412;6.724;2023-06-04T14:04:29;37.60;18.60
9837;DHT22;4957;51.412;6.724;2023-06-04T14:06:55;37.50;19.10
9837;DHT22;4957;51.412;6.724;2023-06-04T14:09:20;37.40;19.60
9837;DHT22;4957;51.412;6.724;2023-06-04T14:11:46;37.40;19.90
9837;DHT22;4957;51.412;6.724;2023-06-04T14:14:17;37.30;19.50
9837;DHT22;4957;51.412;6.724;2023-06-04T14:16:44;37.20;19.50
9837;DHT22;4957;51.412;6.724;2023-06-04T14:19:10;37.20;19.40
9837;DHT22;4957;51.412;6.724;2023-06-04T14:21:36;37.10;19.80
9837;DHT22;4957;51.412;6.724;2023-06-04T14:24:02;37.00;19.40
9837;DHT22;4957;51.412;6.724;2023-06-04T14:26:27;36.90;19.60
9837;DHT22;4957;51.412;6.724;2023-06-04T14:28:54;36.80;19.70
9837;DHT22;4957;51.412;6.724;2023-06-04T14:31:20;36.80;20.00
9837;DHT22;4957;51.412;6.724;2023-06-04T14:33:45;36.70;20.10
9837;DHT22;4957;51.412;6.724;2023-06-04T14:36:11;36.60;19.80
9837;DHT22;4957;51.412;6.724;2023-06-04T14:38:37;36.60;20.30
9837;DHT22;4957;51.412;6.724;2023-06-04T14:41:03;36.60;19.90
9837;DHT22;4957;51.412;6.724;2023-06-04T14:43:28;36.60;20.20
9837;DHT22;4957;51.412;6.724;2023-06-04T14:45:54;36.40;19.90
9837;DHT22;4957;51.412;6.724;2023-06-04T14:48:20;36.30;20.20
9837;DHT22;4957;51.412;6.724;2023-06-04T14:50:45;36.20;20.10
9837;DHT22;4957;51.412;6.724;2023-06-04T14:53:12;35.90;19.40
9837;DHT22;4957;51.412;6.724;2023-06-04T14:55:38;35.70;19.30
9837;DHT22;4957;51.412;6.724;2023-06-04T14:58:04;35.60;19.80
9837;DHT22;4957;51.412;6.724;2023-06-04T15:00:31;35.60;19.80
9837;DHT22;4957;51.412;6.724;2023-06-04T15:02:57;35.50;19.80
9837;DHT22;4957;51.412;6.724;2023-06-04T15:05:22;35.60;20.10
9837;DHT22;4957;51.412;6.724;2023-06-04T15:07:48;35.40;19.80
9837;DHT22;4957;51.412;6.724;2023-06-04T15:10:14;35.40;20.20
9837;DHT22;4957;51.412;6.724;2023-06-04T15:12:39;35.50;20.60
9837;DHT22;4957;51.412;6.724;2023-06-04T15:15:07;35.50;20.80
9837;DHT22;4957;51.412;6.724;2023-06-04T15:17:34;35.60;21.00
9837;DHT22;4957;51.412;6.724;2023-06-04T15:20:00;35.70;20.60
9837;DHT22;4957;51.412;6.724;2023-06-04T15:22:26;35.70;20.40
9837;DHT22;4957;51.412;6.724;2023-06-04T15:24:52;35.60;20.50
9837;DHT22;4957;51.412;6.724;2023-06-04T15:27:19;35.60;20.60
9837;DHT22;4957;51.412;6.724;2023-06-04T15:29:47;35.50;20.60
9837;DHT22;4957;51.412;6.724;2023-06-04T15:32:13;35.50;20.40
9837;DHT22;4957;51.412;6.724;2023-06-04T15:34:39;35.50;20.20
9837;DHT22;4957;51.412;6.724;2023-06-04T15:37:04;35.40;20.40
9837;DHT22;4957;51.412;6.724;2023-06-04T15:39:30;35.30;20.60
9837;DHT22;4957;51.412;6.724;2023-06-04T15:41:57;35.30;20.90
9837;DHT22;4957;51.412;6.724;2023-06-04T15:44:23;35.20;20.70
9837;DHT22;4957;51.412;6.724;2023-06-04T15:46:52;35.20;20.60
9837;DHT22;4957;51.412;6.724;2023-06-04T15:49:17;35.10;20.50
9837;DHT22;4957;51.412;6.724;2023-06-04T15:51:43;35.10;20.90
9837;DHT22;4957;51.412;6.724;2023-06-04T15:54:09;35.10;20.90
9837;DHT22;4957;51.412;6.724;2023-06-04T15:56:35;35.00;20.90
9837;DHT22;4957;51.412;6.724;2023-06-04T15:59:01;35.00;20.90
9837;DHT22;4957;51.412;6.724;2023-06-04T16:01:31;35.00;20.80
9837;DHT22;4957;51.412;6.724;2023-06-04T16:03:57;35.00;20.70
9837;DHT22;4957;51.412;6.724;2023-06-04T16:06:23;34.90;20.80
9837;DHT22;4957;51.412;6.724;2023-06-04T16:08:49;34.80;21.00
9837;DHT22;4957;51.412;6.724;2023-06-04T16:11:15;34.70;21.10
9837;DHT22;4957;51.412;6.724;2023-06-04T16:13:41;34.70;21.10
9837;DHT22;4957;51.412;6.724;2023-06-04T16:16:08;34.60;21.10
9837;DHT22;4957;51.412;6.724;2023-06-04T16:18:34;34.60;21.00